KDHT Airport (Dalhart Muni) Information

FAA: DHT - ICAO: KDHT

KDHT Airport Location

State Texas
County Hartley
City Dalhart
KDHT Airport is 3 miles southwest of Dalhart, TX.
Latitude 36-01-20.9000N
Longitude 102-32-50.6000W
Elevation 3,991ft

KDHT Airport METARs

METAR KDHT 201853Z AUTO VRB04KT 10SM CLR 36/09 A2981 RMK AO2 SLP020 T03610094
Altimeter 29.81"
Temperature 36.1°C (97.0°F)
Wind 0° at 4KT
Clouds Skies are clear.
Visibility 10.0mi
Time observed: 2021-06-20T18:53:00Z

KDHT Airport Details

Status Operational
Activation July 1943
Ownership Public
Usage Public
Chart WICHITA
ATC on-site No
Beacon schedule sunset-sunrise
Beacon color clear green

KDHT Airport Contacts

Owner CITY OF DALHART
Owner address PO BOX 2005, DALHART, TX 79022
Owner phone 806-244-5511
Manager WALTER Y. STEWART
Manager address 854 PRIVATE RD 6000, CROCKETT, TX 75835
Manager phone (936) 544-2222

KDHT Airport (Dalhart Muni) Radio Frequencies

KDHT (Airport) Radio Frequencies

UNICOM 122.95
Common traffic advisory frequency (CTAF) 122.95